createdAt,value
2018-05-18T00:00:08.553Z,92.80
2018-05-18T00:02:41.164Z,92.80
2018-05-18T00:05:10.129Z,92.40
2018-05-18T00:07:43.368Z,92.40
2018-05-18T00:10:12.875Z,92.30
2018-05-18T00:12:46.249Z,92.50
2018-05-18T00:15:15.401Z,92.80
2018-05-18T00:17:47.971Z,92.70
2018-05-18T00:20:17.670Z,92.70
2018-05-18T00:22:50.326Z,92.80
2018-05-18T00:25:19.821Z,93.20
2018-05-18T00:27:53.100Z,92.40
2018-05-18T00:30:21.812Z,92.40
2018-05-18T00:32:58.441Z,92.10
2018-05-18T00:35:27.253Z,92.20
2018-05-18T00:37:59.713Z,92.40
2018-05-18T00:40:28.444Z,92.20
2018-05-18T00:43:00.977Z,92.00
2018-05-18T00:45:29.932Z,92.20
2018-05-18T00:48:03.268Z,92.10
2018-05-18T00:50:31.991Z,92.20
2018-05-18T00:53:08.485Z,92.40
2018-05-18T00:55:41.168Z,92.30
2018-05-18T00:58:10.568Z,92.40
2018-05-18T01:00:39.357Z,92.20
2018-05-18T01:03:15.328Z,92.60
2018-05-18T01:05:44.093Z,92.80
2018-05-18T01:08:14.973Z,92.60
2018-05-18T01:10:44.538Z,92.90
2018-05-18T01:13:18.480Z,92.90
2018-05-18T01:15:47.317Z,92.80
2018-05-18T01:18:19.462Z,92.80
2018-05-18T01:20:49.373Z,92.80
2018-05-18T01:23:22.190Z,92.80
2018-05-18T01:25:50.964Z,92.80
2018-05-18T01:28:23.776Z,92.90
2018-05-18T01:30:52.516Z,92.90
2018-05-18T01:33:29.862Z,92.90
2018-05-18T01:35:58.594Z,92.80
2018-05-18T01:38:28.515Z,92.70
2018-05-18T01:40:57.275Z,93.20
2018-05-18T01:43:34.026Z,93.20
2018-05-18T01:46:03.015Z,93.20
2018-05-18T01:48:32.818Z,92.60
2018-05-18T01:51:01.529Z,92.50
2018-05-18T01:53:34.883Z,92.50
2018-05-18T01:56:03.635Z,92.50
2018-05-18T01:58:40.100Z,92.20
2018-05-18T02:01:08.888Z,92.00
2018-05-18T02:03:39.736Z,92.10
2018-05-18T02:06:08.784Z,91.70
2018-05-18T02:08:45.946Z,92.40
2018-05-18T02:11:14.777Z,92.10
2018-05-18T02:13:44.568Z,92.30
2018-05-18T02:16:13.353Z,92.30
2018-05-18T02:18:49.792Z,92.40
2018-05-18T02:21:18.730Z,92.00
2018-05-18T02:23:50.043Z,91.90
2018-05-18T02:26:18.789Z,91.90
2018-05-18T02:28:51.953Z,92.20
2018-05-18T02:31:22.142Z,91.70
2018-05-18T02:33:58.144Z,91.70
2018-05-18T02:36:27.150Z,92.10
2018-05-18T02:38:57.460Z,92.30
2018-05-18T02:41:26.907Z,92.30
2018-05-18T02:43:59.829Z,92.30
2018-05-18T02:46:29.313Z,92.40
2018-05-18T02:49:05.506Z,92.40
2018-05-18T02:51:34.339Z,92.40
2018-05-18T02:54:05.530Z,92.10
2018-05-18T02:56:35.028Z,92.60
2018-05-18T02:59:11.244Z,92.50
2018-05-18T03:01:40.654Z,92.60
2018-05-18T03:04:13.141Z,93.00
2018-05-18T03:06:41.809Z,92.50
2018-05-18T03:09:14.901Z,92.20
2018-05-18T03:11:45.031Z,92.20
2018-05-18T03:14:15.700Z,91.80
2018-05-18T03:16:44.427Z,91.90
2018-05-18T03:19:20.669Z,91.40
2018-05-18T03:21:49.580Z,91.40
2018-05-18T03:24:21.345Z,91.90
2018-05-18T03:26:59.153Z,91.30
2018-05-18T03:29:27.886Z,91.60
2018-05-18T03:31:56.620Z,91.20
2018-05-18T03:34:25.330Z,91.30
2018-05-18T03:36:54.023Z,91.50
2018-05-18T03:39:26.927Z,91.30
2018-05-18T03:41:55.643Z,91.30
2018-05-18T03:44:32.232Z,91.00
2018-05-18T03:47:01.186Z,91.10
2018-05-18T03:49:30.895Z,90.30
2018-05-18T03:51:59.668Z,90.60
2018-05-18T03:54:33.209Z,90.70
2018-05-18T03:57:01.956Z,90.70
2018-05-18T03:59:38.427Z,91.10
2018-05-18T04:02:18.280Z,90.80
2018-05-18T04:07:00.237Z,91.10
2018-05-18T04:09:28.974Z,90.70
2018-05-18T04:11:58.510Z,90.70
2018-05-18T04:14:27.482Z,90.60
2018-05-18T04:16:56.259Z,90.70
2018-05-18T04:19:25.053Z,90.90
2018-05-18T04:21:54.040Z,91.50
2018-05-18T04:24:22.754Z,92.00
2018-05-18T04:26:51.597Z,91.40
2018-05-18T04:29:21.333Z,90.80
2018-05-18T04:31:51.241Z,90.80
2018-05-18T04:34:20.068Z,91.70
2018-05-18T04:36:56.103Z,90.90
2018-05-18T04:39:24.815Z,91.50
2018-05-18T04:41:57.113Z,91.00
2018-05-18T04:44:26.870Z,91.10
2018-05-18T04:47:02.600Z,91.10
2018-05-18T04:49:31.339Z,91.20
2018-05-18T04:52:03.187Z,92.00
2018-05-18T04:54:31.887Z,91.20
2018-05-18T04:57:07.980Z,90.90
2018-05-18T04:59:36.706Z,91.10
2018-05-18T05:02:07.544Z,91.30
2018-05-18T05:04:36.593Z,91.70
2018-05-18T05:07:10.437Z,91.40
2018-05-18T05:09:39.189Z,91.30
2018-05-18T05:12:13.264Z,91.60
2018-05-18T05:14:41.996Z,91.70
2018-05-18T05:17:16.096Z,91.50
2018-05-18T05:19:45.579Z,91.70
2018-05-18T05:22:18.967Z,92.10
2018-05-18T05:24:48.105Z,92.40
2018-05-18T05:27:20.661Z,91.70
2018-05-18T05:29:49.419Z,91.70
2018-05-18T05:32:25.882Z,90.90
2018-05-18T05:34:54.661Z,91.10
2018-05-18T05:37:24.829Z,91.20
2018-05-18T05:39:53.941Z,91.30
2018-05-18T05:42:27.495Z,90.90
2018-05-18T05:44:57.073Z,90.50
2018-05-18T05:47:29.798Z,90.50
2018-05-18T05:49:58.940Z,90.10
2018-05-18T05:52:35.228Z,90.00
2018-05-18T05:55:04.437Z,90.20
2018-05-18T05:57:34.083Z,89.60
2018-05-18T06:00:03.046Z,89.60
2018-05-18T06:02:39.905Z,90.60
2018-05-18T06:05:09.444Z,90.30
2018-05-18T06:07:38.249Z,90.30
2018-05-18T06:10:07.362Z,90.20
2018-05-18T06:12:43.624Z,90.30
2018-05-18T06:15:12.386Z,90.40
2018-05-18T06:17:43.963Z,90.40
2018-05-18T06:20:12.811Z,90.60
2018-05-18T06:22:44.726Z,90.80
2018-05-18T06:25:13.418Z,90.70
2018-05-18T06:27:47.227Z,90.40
2018-05-18T06:30:16.242Z,90.10
2018-05-18T06:32:53.671Z,91.00
2018-05-18T06:35:23.328Z,91.00
2018-05-18T06:37:53.634Z,89.90
2018-05-18T06:40:23.713Z,89.90
2018-05-18T06:42:59.559Z,89.80
2018-05-18T06:45:28.346Z,90.50
2018-05-18T06:47:58.563Z,89.40
2018-05-18T06:50:27.372Z,90.00
2018-05-18T06:53:04.041Z,90.10
2018-05-18T06:55:33.174Z,90.50
2018-05-18T06:58:05.393Z,90.60
2018-05-18T07:00:34.193Z,90.20
2018-05-18T07:03:07.142Z,89.70
2018-05-18T07:05:37.073Z,89.80
2018-05-18T07:08:09.260Z,89.80
2018-05-18T07:10:39.061Z,89.50
2018-05-18T07:13:15.796Z,90.00
2018-05-18T07:15:45.517Z,88.00
2018-05-18T07:18:14.847Z,88.20
2018-05-18T07:20:43.704Z,88.80
2018-05-18T07:23:21.678Z,89.90
2018-05-18T07:25:50.459Z,90.00
2018-05-18T07:28:19.971Z,90.20
2018-05-18T07:30:48.873Z,91.00
2018-05-18T07:33:22.806Z,89.10
2018-05-18T07:35:52.315Z,89.10
2018-05-18T07:38:24.777Z,90.50
2018-05-18T07:40:54.656Z,90.90
2018-05-18T07:43:24.677Z,90.90
2018-05-18T07:45:54.304Z,90.20
2018-05-18T07:48:30.855Z,90.20
2018-05-18T07:50:59.684Z,90.10
2018-05-18T07:53:31.955Z,90.40
2018-05-18T07:56:01.035Z,90.40
2018-05-18T07:58:33.426Z,88.60
2018-05-18T08:01:02.984Z,87.50
2018-05-18T08:03:35.958Z,87.50
2018-05-18T08:06:04.799Z,86.60
2018-05-18T08:08:37.211Z,87.60
2018-05-18T08:11:06.483Z,90.10
2018-05-18T08:13:42.873Z,86.70
2018-05-18T08:16:11.724Z,87.70
2018-05-18T08:18:42.099Z,86.70
2018-05-18T08:21:10.945Z,87.70
2018-05-18T08:23:47.923Z,86.30
2018-05-18T08:27:19.324Z,87.70
2018-05-18T08:29:48.474Z,86.70
2018-05-18T08:32:17.421Z,86.10
2018-05-18T08:34:53.456Z,87.70
2018-05-18T08:37:22.585Z,84.70
2018-05-18T08:39:54.075Z,85.00
2018-05-18T08:42:22.867Z,85.00
2018-05-18T08:44:59.848Z,84.50
2018-05-18T08:47:28.872Z,84.50
2018-05-18T08:49:59.125Z,83.30
2018-05-18T08:52:28.669Z,85.00
2018-05-18T08:55:05.063Z,85.10
2018-05-18T08:57:33.900Z,86.50
2018-05-18T09:00:04.727Z,86.00
2018-05-18T09:02:33.556Z,83.80
2018-05-18T09:05:10.355Z,87.70
2018-05-18T09:07:39.179Z,85.30
2018-05-18T09:10:10.052Z,81.50
2018-05-18T09:12:38.947Z,82.00
2018-05-18T09:15:12.823Z,79.90
2018-05-18T09:17:43.082Z,79.50
2018-05-18T09:20:15.495Z,80.30
2018-05-18T09:22:45.018Z,84.30
2018-05-18T09:25:22.049Z,83.40
2018-05-18T09:27:50.913Z,79.60
2018-05-18T09:30:19.750Z,81.60
2018-05-18T09:32:48.951Z,82.20
2018-05-18T09:35:21.892Z,81.50
2018-05-18T09:37:50.672Z,81.20
2018-05-18T09:40:26.968Z,83.10
2018-05-18T09:42:56.123Z,85.90
2018-05-18T09:45:25.557Z,83.30
2018-05-18T09:47:54.428Z,81.40
2018-05-18T09:50:31.216Z,79.50
2018-05-18T09:53:00.044Z,84.90
2018-05-18T09:55:30.473Z,80.10
2018-05-18T09:57:59.230Z,80.00
2018-05-18T10:00:35.695Z,76.40
2018-05-18T10:03:05.569Z,81.50
2018-05-18T10:05:35.203Z,77.80
2018-05-18T10:08:04.399Z,78.90
2018-05-18T10:10:41.124Z,72.90
2018-05-18T10:13:09.977Z,75.30
2018-05-18T10:15:40.737Z,76.60
2018-05-18T10:18:10.335Z,75.00
2018-05-18T10:20:47.471Z,73.20
2018-05-18T10:23:16.301Z,73.10
2018-05-18T10:25:46.914Z,70.00
2018-05-18T10:28:15.775Z,70.00
2018-05-18T10:30:52.404Z,71.50
2018-05-18T10:33:22.292Z,59.80
2018-05-18T10:35:52.152Z,59.60
2018-05-18T10:38:20.997Z,63.40
2018-05-18T10:40:57.915Z,70.10
2018-05-18T10:43:26.749Z,71.00
2018-05-18T10:45:58.834Z,61.00
2018-05-18T10:48:28.036Z,64.30
2018-05-18T10:57:47.547Z,68.50
2018-05-18T11:00:17.445Z,73.30
2018-05-18T11:02:46.374Z,73.30
2018-05-18T11:05:15.194Z,75.10
2018-05-18T11:07:44.268Z,74.80
2018-05-18T11:10:13.072Z,72.10
2018-05-18T11:12:42.713Z,73.70
2018-05-18T11:15:14.137Z,73.70
2018-05-18T11:17:42.929Z,73.70
2018-05-18T11:20:19.337Z,74.00
2018-05-18T11:22:49.241Z,71.00
2018-05-18T11:25:19.119Z,75.50
2018-05-18T11:27:48.291Z,75.50
2018-05-18T11:30:21.132Z,63.30
2018-05-18T11:32:50.717Z,68.60
2018-05-18T11:35:23.297Z,68.40
2018-05-18T11:37:52.500Z,64.50
2018-05-18T11:40:26.230Z,69.60
2018-05-18T11:42:54.840Z,73.00
2018-05-18T11:45:27.799Z,70.00
2018-05-18T11:47:57.540Z,75.10
2018-05-18T11:50:31.094Z,68.30
2018-05-18T11:53:02.065Z,72.30
2018-05-18T11:55:31.914Z,72.60
2018-05-18T11:58:00.763Z,67.40
2018-05-18T12:00:37.316Z,66.80
2018-05-18T12:03:06.164Z,67.90
2018-05-18T12:05:38.346Z,64.00
2018-05-18T12:08:08.464Z,71.70
2018-05-18T12:10:38.994Z,69.80
2018-05-18T12:13:07.845Z,62.70
2018-05-18T12:15:44.521Z,60.50
2018-05-18T12:18:13.338Z,61.00
2018-05-18T12:20:45.776Z,57.80
2018-05-18T12:23:15.324Z,59.20
2018-05-18T12:25:51.446Z,59.30
2018-05-18T12:28:20.343Z,59.70
2018-05-18T12:30:50.272Z,59.30
2018-05-18T12:33:19.412Z,66.60
2018-05-18T12:35:55.279Z,61.80
2018-05-18T12:38:24.092Z,61.80
2018-05-18T12:40:56.432Z,60.60
2018-05-18T12:43:25.241Z,59.80
2018-05-18T12:46:01.658Z,63.60
2018-05-18T12:48:31.411Z,63.80
2018-05-18T12:51:01.485Z,63.80
2018-05-18T12:53:31.099Z,66.10
2018-05-18T12:56:04.868Z,61.70
2018-05-18T12:58:33.726Z,61.60
2018-05-18T13:01:11.611Z,59.90
2018-05-18T13:03:40.963Z,60.50
2018-05-18T13:06:10.611Z,63.40
2018-05-18T13:08:39.566Z,67.40
2018-05-18T13:11:17.103Z,66.20
2018-05-18T13:13:45.914Z,63.00
2018-05-18T13:16:15.560Z,62.40
2018-05-18T13:18:44.665Z,56.90
2018-05-18T13:21:20.697Z,59.00
2018-05-18T13:23:49.585Z,54.60
2018-05-18T13:26:19.640Z,55.30
2018-05-18T13:28:49.204Z,63.90
2018-05-18T13:31:21.611Z,64.50
2018-05-18T13:33:51.508Z,56.10
2018-05-18T13:36:23.991Z,56.00
2018-05-18T13:38:53.112Z,55.20
2018-05-18T13:41:29.770Z,55.70
2018-05-18T13:43:59.394Z,54.00
2018-05-18T13:46:30.212Z,53.80
2018-05-18T13:48:59.844Z,54.90
2018-05-18T13:51:31.337Z,55.00
2018-05-18T13:54:00.263Z,55.60
2018-05-18T13:56:33.335Z,57.20
2018-05-18T13:59:02.247Z,57.30
2018-05-18T14:01:38.720Z,55.00
2018-05-18T14:04:07.797Z,56.10
2018-05-18T14:06:37.787Z,55.40
2018-05-18T14:09:06.788Z,55.40
2018-05-18T14:11:43.118Z,56.40
2018-05-18T14:14:11.931Z,54.50
2018-05-18T14:16:42.578Z,55.70
2018-05-18T14:19:11.759Z,56.10
2018-05-18T14:21:48.824Z,59.00
2018-05-18T14:24:17.700Z,58.90
2018-05-18T14:26:48.779Z,53.00
2018-05-18T14:29:17.621Z,53.60
2018-05-18T14:31:54.166Z,56.00
2018-05-18T14:34:23.777Z,56.80
2018-05-18T14:36:54.149Z,56.70
2018-05-18T14:39:23.434Z,55.90
2018-05-18T14:41:59.548Z,55.40
2018-05-18T14:44:29.256Z,56.30
2018-05-18T14:47:00.098Z,56.00
2018-05-18T14:49:28.951Z,56.00
2018-05-18T14:52:01.783Z,56.30
2018-05-18T14:54:31.015Z,57.60
2018-05-18T14:57:07.475Z,55.00
2018-05-18T14:59:37.135Z,53.20
2018-05-18T15:02:08.195Z,53.20
2018-05-18T15:04:37.082Z,56.90
2018-05-18T15:07:14.384Z,50.50
2018-05-18T15:09:43.880Z,50.60
2018-05-18T15:12:14.311Z,52.10
2018-05-18T15:14:43.252Z,54.80
2018-05-18T15:17:19.883Z,55.30
2018-05-18T15:19:48.830Z,56.00
2018-05-18T15:22:18.480Z,57.40
2018-05-18T15:27:25.310Z,59.80
2018-05-18T15:29:54.220Z,62.30
2018-05-18T15:32:24.133Z,57.20
2018-05-18T15:34:53.045Z,57.20
2018-05-18T15:37:25.612Z,62.30
2018-05-18T15:39:54.881Z,57.20
2018-05-18T15:42:27.376Z,57.90
2018-05-18T15:44:57.090Z,59.00
2018-05-18T15:47:29.924Z,59.00
2018-05-18T15:49:58.942Z,64.10
2018-05-18T15:52:32.059Z,59.40
2018-05-18T15:55:00.899Z,59.40
2018-05-18T15:57:36.770Z,57.30
2018-05-18T16:00:05.643Z,62.00
2018-05-18T16:02:37.216Z,65.90
2018-05-18T16:05:06.152Z,61.80
2018-05-18T16:07:42.324Z,59.80
2018-05-18T16:10:11.277Z,58.80
2018-05-18T16:12:42.067Z,59.70
2018-05-18T16:15:24.372Z,58.80
2018-05-18T16:17:54.219Z,59.70
2018-05-18T16:20:24.154Z,59.30
2018-05-18T16:22:54.543Z,59.30
2018-05-18T16:25:23.777Z,62.80
2018-05-18T16:27:54.101Z,62.10
2018-05-18T16:30:23.995Z,61.20
2018-05-18T16:32:53.767Z,61.70
2018-05-18T16:35:23.041Z,61.80
2018-05-18T16:37:56.070Z,62.40
2018-05-18T16:40:25.018Z,61.40
2018-05-18T16:42:57.225Z,66.30
2018-05-18T16:45:27.449Z,62.20
2018-05-18T16:47:59.239Z,64.90
2018-05-18T16:50:28.952Z,60.00
2018-05-18T16:53:06.236Z,57.70
2018-05-18T16:55:36.137Z,58.80
2018-05-18T16:58:06.145Z,56.20
2018-05-18T17:00:35.476Z,56.20
2018-05-18T17:03:10.060Z,56.90
2018-05-18T17:05:41.588Z,59.90
2018-05-18T17:08:11.729Z,57.00
2018-05-18T17:10:40.687Z,57.00
2018-05-18T17:13:13.051Z,56.30
2018-05-18T17:15:42.177Z,57.50
2018-05-18T17:18:18.347Z,58.60
2018-05-18T17:20:47.289Z,60.80
2018-05-18T17:23:17.940Z,61.80
2018-05-18T17:25:47.045Z,61.80
2018-05-18T17:28:19.891Z,62.70
2018-05-18T17:30:49.082Z,60.20
2018-05-18T17:33:21.712Z,63.10
2018-05-18T17:35:53.121Z,65.60
2018-05-18T17:38:23.562Z,65.70
2018-05-18T17:40:52.392Z,63.30
2018-05-18T17:43:30.040Z,63.00
2018-05-18T17:45:59.041Z,68.10
2018-05-18T17:48:31.122Z,67.10
2018-05-18T17:51:01.258Z,72.00
2018-05-18T17:53:31.861Z,70.80
2018-05-18T17:56:00.810Z,71.90
2018-05-18T17:58:33.655Z,73.30
2018-05-18T18:01:02.595Z,69.80
2018-05-18T18:03:38.891Z,69.90
2018-05-18T18:06:08.107Z,69.60
2018-05-18T18:08:38.370Z,73.40
2018-05-18T18:11:07.313Z,73.20
2018-05-18T18:13:40.601Z,74.30
2018-05-18T18:16:09.489Z,73.10
2018-05-18T18:18:41.900Z,74.20
2018-05-18T18:21:11.068Z,73.10
2018-05-18T18:23:47.206Z,73.90
2018-05-18T18:26:16.194Z,75.20
2018-05-18T18:28:48.549Z,77.20
2018-05-18T18:31:17.443Z,74.80
2018-05-18T18:33:53.716Z,75.20
2018-05-18T18:36:29.397Z,75.50
2018-05-18T18:38:58.309Z,77.50
2018-05-18T18:41:27.961Z,77.80
2018-05-18T18:43:57.154Z,77.70
2018-05-18T18:46:25.985Z,77.30
2018-05-18T18:48:58.452Z,78.80
2018-05-18T18:51:27.616Z,79.30
2018-05-18T18:54:03.937Z,78.80
2018-05-18T18:56:32.826Z,77.70
2018-05-18T18:59:03.107Z,78.00
2018-05-18T19:01:31.981Z,78.00
2018-05-18T19:04:09.123Z,80.30
2018-05-18T19:06:39.105Z,79.10
2018-05-18T19:09:09.442Z,79.00
2018-05-18T19:11:38.243Z,80.10
2018-05-18T19:14:15.523Z,80.50
2018-05-18T19:16:44.448Z,80.40
2018-05-18T19:19:15.008Z,79.90
2018-05-18T19:21:44.510Z,80.00
2018-05-18T19:24:16.847Z,80.20
2018-05-18T19:26:45.683Z,80.50
2018-05-18T19:29:18.835Z,80.40
2018-05-18T19:31:47.605Z,81.10
2018-05-18T19:34:23.593Z,81.50
2018-05-18T19:36:52.788Z,82.10
2018-05-18T19:39:23.395Z,82.40
2018-05-18T19:41:54.421Z,84.10
2018-05-18T19:44:25.987Z,84.00
2018-05-18T19:46:55.361Z,84.00
2018-05-18T19:49:28.644Z,84.80
2018-05-18T19:51:57.711Z,84.80
2018-05-18T19:54:34.081Z,84.10
2018-05-18T19:57:02.884Z,85.50
2018-05-18T19:59:35.265Z,85.90
2018-05-18T20:02:04.995Z,85.90
2018-05-18T20:04:37.076Z,86.00
2018-05-18T20:07:06.261Z,85.90
2018-05-18T20:09:38.424Z,85.90
2018-05-18T20:12:07.366Z,86.40
2018-05-18T20:14:44.100Z,86.50
2018-05-18T20:17:13.191Z,86.50
2018-05-18T20:19:42.893Z,87.10
2018-05-18T20:22:12.454Z,87.60
2018-05-18T20:24:45.293Z,87.50
2018-05-18T20:27:14.131Z,87.30
2018-05-18T20:29:50.617Z,87.30
2018-05-18T20:32:20.658Z,88.10
2018-05-18T20:34:51.724Z,88.10
2018-05-18T20:37:20.792Z,87.90
2018-05-18T20:39:58.264Z,87.70
2018-05-18T20:42:27.877Z,88.00
2018-05-18T20:44:57.761Z,88.40
2018-05-18T20:47:26.723Z,88.30
2018-05-18T20:49:59.289Z,88.30
2018-05-18T20:52:28.473Z,88.90
2018-05-18T20:55:02.002Z,89.80
2018-05-18T20:57:30.977Z,88.90
2018-05-18T21:00:04.709Z,89.50
2018-05-18T21:02:33.733Z,89.20
2018-05-18T21:05:06.976Z,88.90
2018-05-18T21:07:40.056Z,88.90
2018-05-18T21:10:09.162Z,88.50
2018-05-18T21:12:37.976Z,89.00
2018-05-18T21:15:12.702Z,89.10
2018-05-18T21:17:41.557Z,89.00
2018-05-18T21:20:14.733Z,90.10
2018-05-18T21:22:44.727Z,90.00
2018-05-18T21:25:18.226Z,90.10
2018-05-18T21:27:47.861Z,90.10
2018-05-18T21:30:19.743Z,90.10
2018-05-18T21:32:49.751Z,90.00
2018-05-18T21:35:21.966Z,90.10
2018-05-18T21:37:50.933Z,90.10
2018-05-18T21:40:23.887Z,90.10
2018-05-18T21:42:52.656Z,90.50
2018-05-18T21:45:25.674Z,90.30
2018-05-18T21:48:05.833Z,90.30
2018-05-18T21:50:34.637Z,91.20
2018-05-18T21:53:03.474Z,90.50
2018-05-18T21:55:32.242Z,90.50
2018-05-18T21:58:01.429Z,91.10
2018-05-18T22:00:32.582Z,90.70
2018-05-18T22:03:02.340Z,90.80
2018-05-18T22:05:35.634Z,90.60
2018-05-18T22:08:06.046Z,90.60
2018-05-18T22:10:39.011Z,91.00
2018-05-18T22:13:08.037Z,90.70
2018-05-18T22:15:40.350Z,91.10
2018-05-18T22:18:09.971Z,91.10
2018-05-18T22:20:42.556Z,90.90
2018-05-18T22:23:11.965Z,91.10
2018-05-18T22:25:49.045Z,91.20
2018-05-18T22:28:17.855Z,91.30
2018-05-18T22:30:47.776Z,91.60
2018-05-18T22:33:16.608Z,91.40
2018-05-18T22:35:50.005Z,91.50
2018-05-18T22:38:18.804Z,91.50
2018-05-18T22:41:10.169Z,91.40
2018-05-18T22:43:39.169Z,91.50
2018-05-18T22:46:15.883Z,91.90
2018-05-18T22:48:45.739Z,92.00
2018-05-18T22:51:16.257Z,91.80
2018-05-18T22:53:45.051Z,91.80
2018-05-18T22:56:14.265Z,91.80
2018-05-18T22:58:43.136Z,91.80
2018-05-18T23:01:11.962Z,91.90
2018-05-18T23:03:41.092Z,92.20
2018-05-18T23:06:10.072Z,92.10
2018-05-18T23:08:38.914Z,92.30
2018-05-18T23:11:16.066Z,92.40
2018-05-18T23:13:44.850Z,92.80
2018-05-18T23:16:13.644Z,92.50
2018-05-18T23:18:42.845Z,92.60
2018-05-18T23:21:14.155Z,92.50
2018-05-18T23:23:43.155Z,92.60
2018-05-18T23:26:16.160Z,92.90
2018-05-18T23:28:44.886Z,92.80
2018-05-18T23:31:21.914Z,93.20
2018-05-18T23:33:50.921Z,93.60
2018-05-18T23:36:21.165Z,92.80
2018-05-18T23:38:53.054Z,92.70
2018-05-18T23:41:22.919Z,92.90
2018-05-18T23:43:52.423Z,93.40
2018-05-18T23:46:25.335Z,93.00
2018-05-18T23:48:54.348Z,93.30
2018-05-18T23:51:30.546Z,92.90
2018-05-18T23:54:00.086Z,93.40
2018-05-18T23:56:29.395Z,93.40
2018-05-18T23:58:59.785Z,92.90
